LICJ Airport Information

Runway Information
Runway 02 Length 6804 ft width 148 ft
Elevation 42 ft Threshold 10 ft Heading 24
Runway 20 Length 6804 ft Width 148 ft
Elevation 22 ft Threshold 10 ft Heading 204
Runway 07 Length 10912 ft width 197 ft
Elevation 33 ft Threshold 404 ft Heading 67
Runway 25 Length 10912 ft Width 197 ft
Elevation 50 ft Threshold 679 ft Heading 247
Airport Frequencies
Type APP Name APP Frequency 120.2 MHZ
Type GND Name RAISI GND Frequency 121.625 MHZ
Type TWR Name RAISI TWR Frequency 119.05 MHZ
Airport Navaids
Type VOR-DME Name Palermo Frequency 112300 KHZ
Type NDB Name Palermo Frequency 356 KHZ
Type VOR-DME Name Raisi Frequency 113000 KHZ
Type NDB Name Raisi Frequency 329 KHZ
Airport Weather Information & NOTAM
ADDS - METARS form results

(0958 UTC 23 July 2018)
 
METAR text: LICJ 230950Z 26017KT 9999 SCT015 26/23 Q1011
Conditions at: LICJ (PALERMO/POINT RA, IT) observed 0950 UTC 23 July 2018
Temperature: 26.0°C (79°F)
Dewpoint: 23.0°C (73°F) [RH = 84%]
Pressure (altimeter): 29.85 inches Hg (1011.0 mb)
Winds: from the W (260 degrees) at 20 MPH (17 knots; 8.8 m/s)
Visibility: 6 or more miles (10+ km)
Ceiling: at least 12,000 feet AGL
Clouds: scattered clouds at 1500 feet AGL
Weather: no significant weather observed at this time

METAR text: LICJ 230920Z 27018KT 9999 SCT015 26/23 Q1011
Conditions at: LICJ (PALERMO/POINT RA, IT) observed 0920 UTC 23 July 2018
Temperature: 26.0°C (79°F)
Dewpoint: 23.0°C (73°F) [RH = 84%]
Pressure (altimeter): 29.85 inches Hg (1011.0 mb)
Winds: from the W (270 degrees) at 21 MPH (18 knots; 9.4 m/s)
Visibility: 6 or more miles (10+ km)
Ceiling: at least 12,000 feet AGL
Clouds: scattered clouds at 1500 feet AGL
Weather: no significant weather observed at this time